Time;durP1;ratioP1;P1;durP2;ratioP2;P2;SDS_P1;SDS_P2;PMS_P1;PMS_P2;Temp;Humidity;BMP_temperature;BMP_pressure;BME280_temperature;BME280_humidity;BME280_pressure;Samples;Min_cycle;Max_cycle;Signal;HPM_P1;HPM_P2
2022/04/14 00:01:29;;;;;;;;;;;13.70;99.90;;;;;;10330304;28;84906;-47
2022/04/14 00:06:29;;;;;;;;;;;13.70;99.90;;;;;;10329314;28;84432;-48
2022/04/14 00:11:30;;;;;;;;;;;13.70;99.90;;;;;;10329151;28;85022;-47
2022/04/14 00:16:30;;;;;;;;;;;13.90;99.90;;;;;;10328315;28;94836;-46
2022/04/14 00:21:31;;;;;;;;;;;13.90;99.90;;;;;;10308744;28;87062;-48
2022/04/14 00:26:31;;;;;;;;;;;13.90;99.90;;;;;;10328356;28;84979;-49
2022/04/14 00:31:32;;;;;;;;;;;14.00;99.90;;;;;;10328625;28;84095;-47
2022/04/14 00:36:35;;;;;;;;;;;14.00;99.90;;;;;;10309391;28;96175;-48
2022/04/14 00:41:39;;;;;;;;;;;13.90;99.90;;;;;;10328228;28;84006;-47
2022/04/14 00:46:39;;;;;;;;;;;14.00;99.90;;;;;;10327013;28;84127;-46
2022/04/14 00:51:40;;;;;;;;;;;13.90;99.90;;;;;;10328546;28;84722;-45
2022/04/14 00:56:40;;;;;;;;;;;13.90;99.90;;;;;;10326304;28;84137;-49
2022/04/14 01:01:41;;;;;;;;;;;13.80;99.90;;;;;;10309834;28;86259;-47
2022/04/14 01:06:42;;;;;;;;;;;13.80;99.90;;;;;;10328345;28;84925;-46
2022/04/14 01:11:43;;;;;;;;;;;13.70;99.90;;;;;;10309876;28;85930;-50
2022/04/14 01:16:44;;;;;;;;;;;13.60;99.90;;;;;;10366634;28;84001;-48
2022/04/14 01:21:46;;;;;;;;;;;13.50;99.90;;;;;;10366441;28;84168;-48
2022/04/14 01:26:47;;;;;;;;;;;13.60;99.90;;;;;;10349330;28;87071;-48
2022/04/14 01:31:48;;;;;;;;;;;13.60;99.90;;;;;;10368112;28;83965;-49
2022/04/14 01:36:49;;;;;;;;;;;13.50;99.90;;;;;;10367670;28;84798;-48
2022/04/14 01:41:49;;;;;;;;;;;13.40;99.90;;;;;;10326565;28;84854;-46
2022/04/14 01:46:50;;;;;;;;;;;13.50;99.90;;;;;;10333153;28;84454;-46
2022/04/14 01:51:50;;;;;;;;;;;13.40;99.90;;;;;;10366003;28;87694;-46
2022/04/14 01:56:51;;;;;;;;;;;13.40;99.90;;;;;;10367419;28;84119;-50
2022/04/14 02:01:52;;;;;;;;;;;13.40;99.90;;;;;;10367470;28;85200;-49
2022/04/14 02:06:52;;;;;;;;;;;13.30;99.90;;;;;;10343532;28;84188;-50
2022/04/14 02:11:53;;;;;;;;;;;13.30;99.90;;;;;;10326098;28;85111;-47
2022/04/14 02:16:53;;;;;;;;;;;13.30;99.90;;;;;;10334824;28;84957;-47
2022/04/14 02:21:54;;;;;;;;;;;13.30;99.90;;;;;;10381507;22;85153;-58
2022/04/14 02:26:55;;;;;;;;;;;13.20;99.90;;;;;;10368348;28;84169;-57
2022/04/14 02:31:57;;;;;;;;;;;13.20;99.90;;;;;;10368994;28;84049;-55
2022/04/14 02:36:58;;;;;;;;;;;13.30;99.90;;;;;;10368279;28;84129;-55
2022/04/14 02:41:58;;;;;;;;;;;13.30;99.90;;;;;;10369249;28;84157;-57
2022/04/14 02:46:59;;;;;;;;;;;13.20;99.90;;;;;;10369901;28;84923;-56
2022/04/14 02:52:00;;;;;;;;;;;13.20;99.90;;;;;;10375371;28;84291;-57
2022/04/14 02:57:00;;;;;;;;;;;13.30;99.90;;;;;;10374862;28;84050;-57
2022/04/14 03:02:01;;;;;;;;;;;13.40;99.90;;;;;;10373618;28;86105;-57
2022/04/14 03:07:01;;;;;;;;;;;13.30;99.90;;;;;;10373858;28;84993;-59
2022/04/14 03:12:02;;;;;;;;;;;13.10;99.90;;;;;;10368486;28;85038;-59
2022/04/14 03:17:02;;;;;;;;;;;13.00;99.90;;;;;;10374172;28;84182;-56
2022/04/14 03:22:03;;;;;;;;;;;13.00;99.90;;;;;;10372557;28;85943;-57
2022/04/14 03:27:04;;;;;;;;;;;13.00;99.90;;;;;;10369986;28;84203;-56
2022/04/14 03:32:05;;;;;;;;;;;12.80;99.90;;;;;;10375200;28;84100;-57
2022/04/14 03:37:06;;;;;;;;;;;12.70;99.90;;;;;;10373390;28;85027;-56
2022/04/14 03:42:06;;;;;;;;;;;12.70;99.90;;;;;;10374055;28;84126;-57
2022/04/14 03:47:07;;;;;;;;;;;12.70;99.90;;;;;;10373289;28;84143;-56
2022/04/14 03:52:08;;;;;;;;;;;12.70;99.90;;;;;;10355081;28;86639;-57
2022/04/14 03:57:08;;;;;;;;;;;12.70;99.90;;;;;;10371744;28;84559;-56
2022/04/14 04:02:09;;;;;;;;;;;12.70;99.90;;;;;;10373172;28;84921;-56
2022/04/14 04:07:09;;;;;;;;;;;12.80;99.90;;;;;;10373414;28;84255;-56
2022/04/14 04:12:10;;;;;;;;;;;12.80;99.90;;;;;;10373269;28;84128;-57
2022/04/14 04:17:10;;;;;;;;;;;12.70;99.90;;;;;;10371952;28;84190;-57
2022/04/14 04:22:11;;;;;;;;;;;12.80;99.90;;;;;;10359047;28;84270;-60
2022/04/14 04:27:12;;;;;;;;;;;12.70;99.90;;;;;;10372369;28;84794;-57
2022/04/14 04:32:12;;;;;;;;;;;12.70;99.90;;;;;;10355916;28;87100;-58
2022/04/14 04:37:13;;;;;;;;;;;12.80;99.90;;;;;;10371898;28;84785;-58
2022/04/14 04:42:13;;;;;;;;;;;12.70;99.90;;;;;;10372367;28;84838;-56
2022/04/14 04:47:14;;;;;;;;;;;12.70;99.90;;;;;;10371745;28;84959;-57
2022/04/14 04:52:15;;;;;;;;;;;12.70;99.90;;;;;;10372151;28;84136;-57
2022/04/14 04:57:16;;;;;;;;;;;12.80;99.90;;;;;;10370949;28;84996;-58
2022/04/14 05:02:16;;;;;;;;;;;12.70;99.90;;;;;;10371857;28;84396;-55
2022/04/14 05:07:17;;;;;;;;;;;12.70;99.90;;;;;;10370173;28;85860;-58
2022/04/14 05:12:17;;;;;;;;;;;12.60;99.90;;;;;;10371142;28;84234;-58
2022/04/14 05:17:18;;;;;;;;;;;12.60;99.90;;;;;;10351939;28;87214;-57
2022/04/14 05:22:18;;;;;;;;;;;12.70;99.90;;;;;;10369718;28;84256;-57
2022/04/14 05:27:19;;;;;;;;;;;12.70;99.90;;;;;;10369338;28;84226;-58
2022/04/14 05:32:20;;;;;;;;;;;12.70;99.90;;;;;;10370131;28;84041;-56
2022/04/14 05:37:21;;;;;;;;;;;12.70;99.90;;;;;;10370200;28;84228;-56
2022/04/14 05:42:22;;;;;;;;;;;12.80;99.90;;;;;;10370010;28;85239;-56
2022/04/14 05:47:25;;;;;;;;;;;12.80;99.90;;;;;;10369739;28;84906;-55
2022/04/14 05:52:26;;;;;;;;;;;12.90;99.90;;;;;;10372012;28;84342;-58
2022/04/14 05:57:26;;;;;;;;;;;12.80;99.90;;;;;;10371504;28;84922;-58
2022/04/14 06:02:27;;;;;;;;;;;12.90;99.90;;;;;;10370789;28;84214;-55
2022/04/14 06:07:27;;;;;;;;;;;12.90;99.90;;;;;;10369057;28;84430;-56
2022/04/14 06:12:28;;;;;;;;;;;13.00;99.90;;;;;;10350852;28;84267;-57
2022/04/14 06:17:28;;;;;;;;;;;13.00;99.90;;;;;;10369731;28;84194;-58
2022/04/14 06:22:29;;;;;;;;;;;13.10;99.90;;;;;;10375187;28;84179;-57
2022/04/14 06:27:30;;;;;;;;;;;13.10;99.90;;;;;;10375582;28;84910;-57
2022/04/14 06:32:31;;;;;;;;;;;13.10;99.90;;;;;;10375671;28;84917;-58
2022/04/14 06:37:31;;;;;;;;;;;13.10;99.90;;;;;;10357076;28;84501;-57
2022/04/14 06:42:32;;;;;;;;;;;13.10;99.90;;;;;;10375623;28;85060;-58
2022/04/14 06:47:33;;;;;;;;;;;13.10;99.90;;;;;;10373830;28;84224;-56
2022/04/14 06:52:34;;;;;;;;;;;13.30;99.90;;;;;;10375301;28;83979;-56
2022/04/14 06:57:34;;;;;;;;;;;13.40;99.90;;;;;;10372381;28;86701;-58
2022/04/14 07:02:44;;;;;;;;;;;13.50;99.90;;;;;;10374687;28;84133;-57
2022/04/14 07:07:44;;;;;;;;;;;13.80;99.90;;;;;;10374262;28;84177;-56
2022/04/14 07:12:46;;;;;;;;;;;14.00;99.90;;;;;;10374153;28;85055;-58
2022/04/14 07:17:46;;;;;;;;;;;14.20;99.90;;;;;;10373518;28;84094;-55
2022/04/14 07:22:49;;;;;;;;;;;14.50;99.90;;;;;;10373586;28;86773;-56
2022/04/14 07:27:50;;;;;;;;;;;14.90;99.90;;;;;;10372653;28;85100;-57
2022/04/14 07:32:50;;;;;;;;;;;15.20;99.90;;;;;;10355626;28;84867;-58
2022/04/14 07:37:51;;;;;;;;;;;15.30;99.90;;;;;;10372894;28;84849;-58
2022/04/14 07:42:54;;;;;;;;;;;15.20;99.90;;;;;;10373663;28;84038;-59
2022/04/14 07:47:55;;;;;;;;;;;15.10;99.90;;;;;;10372897;28;84699;-59
2022/04/14 07:52:56;;;;;;;;;;;15.20;99.90;;;;;;10355022;28;84038;-59
2022/04/14 07:58:02;;;;;;;;;;;15.10;99.90;;;;;;10372757;28;84929;-57
2022/04/14 08:03:04;;;;;;;;;;;14.90;99.90;;;;;;10355116;28;84872;-58
2022/04/14 08:08:04;;;;;;;;;;;14.70;99.90;;;;;;10372340;28;84826;-59
2022/04/14 08:13:05;;;;;;;;;;;14.70;99.90;;;;;;10338579;28;84993;-57
2022/04/14 08:18:06;;;;;;;;;;;14.70;99.90;;;;;;10371803;28;85660;-57
2022/04/14 08:23:11;;;;;;;;;;;15.60;99.90;;;;;;10394331;22;86578;-48
2022/04/14 08:28:11;;;;;;;;;;;16.80;99.90;;;;;;10370508;28;84018;-49
2022/04/14 08:33:12;;;;;;;;;;;17.30;1.00;;;;;;10371387;28;84934;-49
2022/04/14 08:38:13;;;;;;;;;;;18.50;1.00;;;;;;10369760;28;84102;-52
2022/04/14 08:43:16;;;;;;;;;;;18.90;1.00;;;;;;10369740;28;85374;-49
2022/04/14 08:48:20;;;;;;;;;;;20.10;1.00;;;;;;10370110;28;85136;-47
2022/04/14 08:53:24;;;;;;;;;;;20.90;99.90;;;;;;10370853;28;84910;-50
2022/04/14 08:58:28;;;;;;;;;;;22.10;99.90;;;;;;10369201;28;84953;-52
2022/04/14 09:03:29;;;;;;;;;;;22.20;1.00;;;;;;10370821;28;84823;-51
2022/04/14 09:08:29;;;;;;;;;;;22.60;1.00;;;;;;10351537;28;85856;-54
2022/04/14 09:13:31;;;;;;;;;;;22.80;1.00;;;;;;10370270;28;84224;-51
2022/04/14 09:18:32;;;;;;;;;;;22.90;1.00;;;;;;10371108;28;84866;-50
2022/04/14 09:23:32;;;;;;;;;;;22.80;1.00;;;;;;10353086;28;87276;-48
2022/04/14 09:28:33;;;;;;;;;;;23.30;99.90;;;;;;10351390;28;86671;-50
2022/04/14 09:33:35;;;;;;;;;;;24.30;1.00;;;;;;10369965;28;85012;-54
2022/04/14 09:38:51;;;;;;;;;;;24.50;99.90;;;;;;10371023;28;84995;-49
2022/04/14 09:43:58;;;;;;;;;;;24.60;99.90;;;;;;10368952;28;84957;-52
2022/04/14 09:49:00;;;;;;;;;;;23.50;1.00;;;;;;10368452;28;84842;-52
2022/04/14 09:54:05;;;;;;;;;;;23.50;1.00;;;;;;10368600;28;84332;-47
2022/04/14 09:59:07;;;;;;;;;;;23.10;99.90;;;;;;10369277;28;84968;-47
2022/04/14 10:04:10;;;;;;;;;;;23.50;1.00;;;;;;10334779;28;85690;-46
2022/04/14 10:09:26;;;;;;;;;;;23.50;99.90;;;;;;10368835;28;85734;-43
2022/04/14 10:14:26;;;;;;;;;;;23.20;1.00;;;;;;10352196;28;84368;-48
2022/04/14 10:19:27;;;;;;;;;;;24.10;99.90;;;;;;10369220;28;84889;-51
2022/04/14 10:24:28;;;;;;;;;;;25.10;1.00;;;;;;10368423;28;84182;-46
2022/04/14 10:29:29;;;;;;;;;;;25.50;1.00;;;;;;10373295;28;84987;-47
2022/04/14 10:34:30;;;;;;;;;;;25.60;1.00;;;;;;10378767;28;84268;-46
2022/04/14 10:39:33;;;;;;;;;;;26.00;99.90;;;;;;10380656;28;84936;-47
2022/04/14 10:44:44;;;;;;;;;;;25.40;99.90;;;;;;10379867;28;86801;-48
2022/04/14 10:49:49;;;;;;;;;;;25.10;1.00;;;;;;10369574;28;84897;-52
2022/04/14 10:54:56;;;;;;;;;;;25.50;1.00;;;;;;10368349;28;84060;-48
2022/04/14 10:59:57;;;;;;;;;;;25.90;99.90;;;;;;10367178;28;84932;-48
2022/04/14 11:04:58;;;;;;;;;;;26.00;1.00;;;;;;10371393;28;84946;-52
2022/04/14 11:09:59;;;;;;;;;;;25.40;1.00;;;;;;10373798;28;84107;-52
2022/04/14 11:15:01;;;;;;;;;;;25.10;1.00;;;;;;10375204;28;84900;-48
2022/04/14 11:20:20;;;;;;;;;;;24.70;99.90;;;;;;10373453;28;84112;-50
2022/04/14 11:25:39;;;;;;;;;;;24.80;99.90;;;;;;10373813;28;84204;-48
2022/04/14 11:30:40;;;;;;;;;;;25.30;1.00;;;;;;10372965;28;84742;-52
2022/04/14 11:35:45;;;;;;;;;;;25.60;1.00;;;;;;10373775;28;84937;-50
2022/04/14 11:40:54;;;;;;;;;;;24.30;1.00;;;;;;10339087;28;85119;-51
2022/04/14 11:45:54;;;;;;;;;;;25.10;1.00;;;;;;10373291;28;84116;-46
2022/04/14 11:50:55;;;;;;;;;;;25.70;1.00;;;;;;10372375;28;84928;-49
2022/04/14 11:55:56;;;;;;;;;;;23.60;2.50;;;;;;10372478;28;84749;-54
2022/04/14 12:00:57;;;;;;;;;;;22.90;1.00;;;;;;10373072;28;84912;-49
2022/04/14 12:06:05;;;;;;;;;;;22.10;1.00;;;;;;10376656;28;84897;-46
2022/04/14 12:11:05;;;;;;;;;;;21.50;1.00;;;;;;10371882;28;84922;-51
2022/04/14 12:16:07;;;;;;;;;;;22.70;99.90;;;;;;10370951;28;84292;-48
2022/04/14 12:21:17;;;;;;;;;;;22.80;1.00;;;;;;10371472;28;84203;-51
2022/04/14 12:26:17;;;;;;;;;;;22.00;99.90;;;;;;10371529;28;84145;-48
2022/04/14 12:31:20;;;;;;;;;;;21.00;99.90;;;;;;10353744;28;87188;-50
2022/04/14 12:36:31;;;;;;;;;;;20.20;99.90;;;;;;10370827;28;84901;-47
2022/04/14 12:41:32;;;;;;;;;;;19.80;99.90;;;;;;10352740;28;86657;-44
2022/04/14 12:46:38;;;;;;;;;;;19.60;99.90;;;;;;10352817;28;84035;-47
2022/04/14 12:51:39;;;;;;;;;;;19.50;1.00;;;;;;10371114;28;85001;-52
2022/04/14 12:56:39;;;;;;;;;;;19.70;1.00;;;;;;10371645;28;84822;-47
2022/04/14 13:01:47;;;;;;;;;;;19.60;1.00;;;;;;10371293;28;84751;-48
2022/04/14 13:07:00;;;;;;;;;;;19.40;1.00;;;;;;10351863;28;84831;-47
2022/04/14 13:12:01;;;;;;;;;;;19.00;1.00;;;;;;10352841;28;84942;-46
2022/04/14 13:17:02;;;;;;;;;;;18.90;1.00;;;;;;10370236;28;84553;-52
2022/04/14 13:22:03;;;;;;;;;;;19.20;1.00;;;;;;10370394;28;84909;-50
2022/04/14 13:27:03;;;;;;;;;;;19.20;1.00;;;;;;10351739;28;87011;-47
2022/04/14 13:32:04;;;;;;;;;;;19.30;1.00;;;;;;10369690;28;84196;-52
2022/04/14 13:37:05;;;;;;;;;;;19.40;1.00;;;;;;10369782;28;84732;-48
2022/04/14 13:42:06;;;;;;;;;;;19.10;1.00;;;;;;10369714;28;84178;-51
2022/04/14 13:47:06;;;;;;;;;;;18.90;1.00;;;;;;10368627;28;84129;-49
2022/04/14 13:52:07;;;;;;;;;;;18.80;99.90;;;;;;10369084;28;84123;-51
2022/04/14 13:57:07;;;;;;;;;;;18.60;99.90;;;;;;10369118;28;84142;-50
2022/04/14 14:02:09;;;;;;;;;;;18.60;99.90;;;;;;10368811;28;84277;-51
2022/04/14 14:07:10;;;;;;;;;;;18.50;1.00;;;;;;10368320;28;84032;-49
2022/04/14 14:12:10;;;;;;;;;;;18.40;99.90;;;;;;10368382;28;85765;-48
2022/04/14 14:17:11;;;;;;;;;;;18.40;99.90;;;;;;10349290;28;86034;-44
2022/04/14 14:22:11;;;;;;;;;;;18.40;99.90;;;;;;10399079;22;98261;-50
2022/04/14 14:27:14;;;;;;;;;;;18.90;99.90;;;;;;10408826;28;85129;-48
2022/04/14 14:32:14;;;;;;;;;;;19.00;86.20;;;;;;10408976;28;85020;-47
2022/04/14 14:37:15;;;;;;;;;;;18.80;50.40;;;;;;10408660;28;84971;-46
2022/04/14 14:42:15;;;;;;;;;;;19.00;1.00;;;;;;10415619;28;84903;-47
2022/04/14 14:47:16;;;;;;;;;;;19.00;1.00;;;;;;10415496;28;84918;-47
2022/04/14 14:52:16;;;;;;;;;;;19.20;1.00;;;;;;10416218;28;84922;-47
2022/04/14 14:57:17;;;;;;;;;;;19.40;1.00;;;;;;10415486;28;84959;-52
2022/04/14 15:02:18;;;;;;;;;;;19.80;1.00;;;;;;10416051;28;84791;-49
2022/04/14 15:07:19;;;;;;;;;;;20.00;99.90;;;;;;10414636;28;83981;-50
2022/04/14 15:12:19;;;;;;;;;;;20.00;1.00;;;;;;10414985;28;85004;-46
2022/04/14 15:17:20;;;;;;;;;;;19.80;99.90;;;;;;10395550;28;85328;-49
2022/04/14 15:22:20;;;;;;;;;;;19.50;99.90;;;;;;10414262;28;84991;-44
2022/04/14 15:27:21;;;;;;;;;;;19.50;16.70;;;;;;10413468;28;86244;-47
2022/04/14 15:32:21;;;;;;;;;;;19.50;93.40;;;;;;10414740;28;84024;-47
2022/04/14 15:37:22;;;;;;;;;;;19.40;99.90;;;;;;10415365;28;84834;-50
2022/04/14 15:42:23;;;;;;;;;;;19.10;99.90;;;;;;10415008;28;84744;-47
2022/04/14 15:47:23;;;;;;;;;;;19.00;99.90;;;;;;10414395;28;85142;-46
2022/04/14 15:52:24;;;;;;;;;;;18.80;1.00;;;;;;10414047;28;85127;-47
2022/04/14 15:57:25;;;;;;;;;;;18.80;1.00;;;;;;10413805;28;85110;-48
2022/04/14 16:02:25;;;;;;;;;;;18.90;99.90;;;;;;10414574;28;84762;-48
2022/04/14 16:07:26;;;;;;;;;;;18.80;1.00;;;;;;10413606;28;85009;-48
2022/04/14 16:12:26;;;;;;;;;;;18.80;1.00;;;;;;10414938;28;84326;-51
2022/04/14 16:17:27;;;;;;;;;;;18.70;99.90;;;;;;10396456;28;84978;-48
2022/04/14 16:22:27;;;;;;;;;;;18.60;1.00;;;;;;10413635;28;84890;-49
2022/04/14 16:27:30;;;;;;;;;;;18.60;1.00;;;;;;10413610;28;84901;-50
2022/04/14 16:32:31;;;;;;;;;;;18.50;99.90;;;;;;10394876;28;85297;-48
2022/04/14 16:37:32;;;;;;;;;;;18.40;1.00;;;;;;10394433;28;86544;-46
2022/04/14 16:42:33;;;;;;;;;;;18.50;1.00;;;;;;10413003;28;83995;-46
2022/04/14 16:47:33;;;;;;;;;;;18.50;99.90;;;;;;10412073;28;84779;-45
2022/04/14 16:52:34;;;;;;;;;;;18.40;99.90;;;;;;10412726;28;84935;-51
2022/04/14 16:57:34;;;;;;;;;;;18.40;1.00;;;;;;10394652;28;84879;-49
2022/04/14 17:02:35;;;;;;;;;;;18.20;99.90;;;;;;10410948;28;84343;-50
2022/04/14 17:07:36;;;;;;;;;;;18.10;1.00;;;;;;10393170;28;85870;-48
2022/04/14 17:12:36;;;;;;;;;;;18.00;99.90;;;;;;10394011;28;84892;-48
2022/04/14 17:17:37;;;;;;;;;;;17.90;99.90;;;;;;10410779;28;84773;-49
2022/04/14 17:27:56;;;;;;;;;;;17.80;1.00;;;;;;10412047;28;85404;-50
2022/04/14 17:32:57;;;;;;;;;;;17.70;99.90;;;;;;10411407;28;84713;-48
2022/04/14 17:37:58;;;;;;;;;;;17.50;99.90;;;;;;10392600;28;87139;-48
2022/04/14 17:42:58;;;;;;;;;;;17.40;1.00;;;;;;10411633;28;85038;-51
2022/04/14 17:47:59;;;;;;;;;;;17.30;1.00;;;;;;10393667;28;85762;-48
2022/04/14 17:53:00;;;;;;;;;;;17.20;1.00;;;;;;10410318;28;84041;-47
2022/04/14 17:58:00;;;;;;;;;;;17.10;99.90;;;;;;10410493;28;84920;-49
2022/04/14 18:03:01;;;;;;;;;;;17.10;1.00;;;;;;10392546;28;86254;-49
2022/04/14 18:08:04;;;;;;;;;;;17.00;1.00;;;;;;10391840;28;85910;-49
2022/04/14 18:13:04;;;;;;;;;;;17.00;1.00;;;;;;10409141;28;84180;-47
2022/04/14 18:18:05;;;;;;;;;;;17.00;1.00;;;;;;10392096;28;85922;-48
2022/04/14 18:23:06;;;;;;;;;;;16.90;1.00;;;;;;10409470;28;84088;-48
2022/04/14 18:28:06;;;;;;;;;;;16.90;91.70;;;;;;10409521;28;85179;-46
2022/04/14 18:33:07;;;;;;;;;;;16.80;87.90;;;;;;10391472;28;86883;-48
2022/04/14 18:38:07;;;;;;;;;;;16.70;99.90;;;;;;10391998;28;84147;-47
2022/04/14 18:43:08;;;;;;;;;;;16.60;99.90;;;;;;10408854;28;84245;-45
2022/04/14 18:48:09;;;;;;;;;;;16.40;99.90;;;;;;10411430;28;85088;-49
2022/04/14 18:53:09;;;;;;;;;;;16.30;99.90;;;;;;10395084;28;87035;-47
2022/04/14 18:58:10;;;;;;;;;;;16.00;1.00;;;;;;10407356;28;84777;-46
2022/04/14 19:03:10;;;;;;;;;;;15.90;1.00;;;;;;10391880;28;84848;-47
2022/04/14 19:08:11;;;;;;;;;;;15.80;1.00;;;;;;10391415;28;87026;-51
2022/04/14 19:13:11;;;;;;;;;;;15.60;1.00;;;;;;10411274;28;84814;-49
2022/04/14 19:18:13;;;;;;;;;;;15.60;1.00;;;;;;10393409;28;84501;-51
2022/04/14 19:23:13;;;;;;;;;;;15.50;1.00;;;;;;10410164;28;84181;-48
2022/04/14 19:28:14;;;;;;;;;;;15.40;1.00;;;;;;10416222;28;84036;-46
2022/04/14 19:33:14;;;;;;;;;;;15.30;1.00;;;;;;10416207;28;84213;-47
2022/04/14 19:38:15;;;;;;;;;;;15.20;1.00;;;;;;10416420;28;84662;-46
2022/04/14 19:43:16;;;;;;;;;;;15.10;1.00;;;;;;10417847;28;84507;-47
2022/04/14 19:48:17;;;;;;;;;;;15.10;1.00;;;;;;10416038;28;84939;-46
2022/04/14 19:53:18;;;;;;;;;;;15.00;1.00;;;;;;10397195;28;84778;-48
2022/04/14 19:58:18;;;;;;;;;;;14.90;1.00;;;;;;10414703;28;84205;-50
2022/04/14 20:03:19;;;;;;;;;;;14.80;1.00;;;;;;10415033;28;84941;-46
2022/04/14 20:08:19;;;;;;;;;;;14.60;1.00;;;;;;10414330;28;84572;-46
2022/04/14 20:13:20;;;;;;;;;;;14.50;1.00;;;;;;10380069;28;87044;-51
2022/04/14 20:18:21;;;;;;;;;;;14.40;1.00;;;;;;10397121;28;85256;-47
2022/04/14 20:23:22;;;;;;;;;;;14.40;1.00;;;;;;10415402;22;84373;-59
2022/04/14 20:28:22;;;;;;;;;;;14.30;1.00;;;;;;10358713;28;85095;-59
2022/04/14 20:33:23;;;;;;;;;;;14.20;1.00;;;;;;10361364;28;85952;-56
2022/04/14 20:38:24;;;;;;;;;;;14.10;1.00;;;;;;10377545;28;84954;-56
2022/04/14 20:43:24;;;;;;;;;;;14.10;1.00;;;;;;10377416;28;85229;-58
2022/04/14 20:48:25;;;;;;;;;;;14.00;1.00;;;;;;10371686;28;85192;-57
2022/04/14 20:53:27;;;;;;;;;;;13.90;1.00;;;;;;10372101;28;83985;-55
2022/04/14 20:58:27;;;;;;;;;;;13.90;1.00;;;;;;10352391;28;85863;-58
2022/04/14 21:03:28;;;;;;;;;;;13.80;1.00;;;;;;10372659;28;84115;-57
2022/04/14 21:08:28;;;;;;;;;;;13.80;1.00;;;;;;10371882;28;84153;-57
2022/04/14 21:13:29;;;;;;;;;;;13.70;1.00;;;;;;10371753;28;85194;-57
2022/04/14 21:18:29;;;;;;;;;;;13.60;1.00;;;;;;10370952;28;84148;-57
2022/04/14 21:23:32;;;;;;;;;;;13.50;1.00;;;;;;10369964;28;84097;-56
2022/04/14 21:28:32;;;;;;;;;;;13.40;1.00;;;;;;10369631;28;85147;-57
2022/04/14 21:33:33;;;;;;;;;;;13.40;1.00;;;;;;10370354;28;84074;-58
2022/04/14 21:38:33;;;;;;;;;;;13.30;1.00;;;;;;10369818;28;85108;-56
2022/04/14 21:43:34;;;;;;;;;;;13.30;1.00;;;;;;10369618;28;83963;-56
2022/04/14 21:48:35;;;;;;;;;;;13.20;1.00;;;;;;10369065;28;84944;-56
2022/04/14 21:53:36;;;;;;;;;;;13.10;1.00;;;;;;10370606;28;84338;-56
2022/04/14 21:58:37;;;;;;;;;;;13.10;1.00;;;;;;10368995;28;84918;-57
2022/04/14 22:03:42;;;;;;;;;;;13.10;1.00;;;;;;10369314;28;85953;-58
2022/04/14 22:08:44;;;;;;;;;;;12.90;1.00;;;;;;10367873;28;84970;-57
2022/04/14 22:13:45;;;;;;;;;;;12.90;1.00;;;;;;10369813;28;84034;-57
2022/04/14 22:18:46;;;;;;;;;;;12.80;1.00;;;;;;10370503;28;85345;-57
2022/04/14 22:23:47;;;;;;;;;;;12.70;1.00;;;;;;10369694;28;84779;-56
2022/04/14 22:28:47;;;;;;;;;;;12.60;8.00;;;;;;10368226;28;84152;-55
2022/04/14 22:33:48;;;;;;;;;;;12.60;13.50;;;;;;10368502;28;84914;-56
2022/04/14 22:38:48;;;;;;;;;;;12.50;27.90;;;;;;10368222;28;84761;-54
2022/04/14 22:43:49;;;;;;;;;;;12.40;45.20;;;;;;10367789;28;84924;-57
2022/04/14 22:48:50;;;;;;;;;;;12.30;87.30;;;;;;10367980;28;84896;-58
2022/04/14 22:53:51;;;;;;;;;;;12.20;77.00;;;;;;10367763;28;85370;-57
2022/04/14 22:58:51;;;;;;;;;;;12.10;99.90;;;;;;10368367;28;84082;-58
2022/04/14 23:03:52;;;;;;;;;;;12.00;99.90;;;;;;10375463;28;84221;-55
2022/04/14 23:08:52;;;;;;;;;;;12.00;99.90;;;;;;10355458;28;85821;-56
2022/04/14 23:13:53;;;;;;;;;;;11.90;99.90;;;;;;10374050;28;84906;-57
2022/04/14 23:18:55;;;;;;;;;;;11.60;99.90;;;;;;10354492;28;84733;-56
2022/04/14 23:23:55;;;;;;;;;;;11.50;99.90;;;;;;10376045;28;84732;-57
2022/04/14 23:28:56;;;;;;;;;;;11.50;99.90;;;;;;10345896;28;84292;-56
2022/04/14 23:33:57;;;;;;;;;;;11.40;99.90;;;;;;10379254;28;83974;-57
2022/04/14 23:44:24;;;;;;;;;;;11.20;99.90;;;;;;10311749;28;85073;-56
2022/04/14 23:49:25;;;;;;;;;;;11.10;99.90;;;;;;10333222;28;84172;-56
2022/04/14 23:54:26;;;;;;;;;;;11.00;99.90;;;;;;10356729;28;84893;-55
2022/04/14 23:59:26;;;;;;;;;;;11.00;99.90;;;;;;10355241;28;84131;-57
